Fallbrook (230, 1234, 239, RB1) Station Data

Red Flag Warning: No
Fire Weather Zone: 250
SDGE Region: North East
Lat/Lon: 33.355/-117.167

Observations

Time Wind Speed/Gust Temp(F) RH Fuel Moist Fuel Temp(F) Dewpt(F) Tmax(F) Tmin(F) Accum Precip 10-min Precip SL Press(mb)
4/29 11:50pm 100 1 G 3 63° 27% - - 28° 83.2° 59.2° - - -
4/29 11:40pm 103 3 G 4 64° 25% - - 28° 83.2° 59.2° - - -
4/29 11:30pm 89 4 G 6 64° 25% - - 28° 83.2° 59.2° - - -
4/29 11:20pm 83 4 G 6 65° 25% - - 28° 83.2° 59.2° - - -
4/29 11:10pm 97 5 G 7 65° 25% - - 28° 83.2° 59.2° - - -
4/29 11:00pm 108 3 G 5 64° 26% - - 28° 83.2° 59.2° - - -
4/29 10:50pm 109 4 G 6 64° 26% - - 28° 83.2° 59.2° - - -
4/29 10:40pm 106 3 G 6 64° 26% - - 29° 83.2° 59.2° - - -
4/29 10:30pm 97 5 G 8 65° 25% - - 28° 83.2° 59.2° - - -
4/29 10:20pm 98 5 G 8 65° 25% - - 28° 83.2° 59.2° - - -
4/29 10:10pm 117 3 G 6 64° 27% - - 30° 83.2° 59.2° - - -
4/29 10:00pm 114 5 G 6 65° 27% - - 30° 83.2° 59.2° - - -
4/29 9:50pm 117 4 G 6 65° 27% - - 31° 83.2° 59.2° - - -
4/29 9:40pm 120 3 G 5 65° 28% - - 31° 83.2° 59.2° - - -
4/29 9:30pm 154 5 G 7 65° 26% - - 30° 83.2° 59.2° - - -
4/29 9:20pm 158 6 G 8 66° 27% - - 31° 83.2° 59.2° - - -
4/29 9:10pm 148 4 G 6 67° 25% - - 30° 83.2° 59.2° - - -
4/29 9:00pm 150 5 G 7 67° 25% - - 30° 83.2° 59.2° - - -
4/29 8:50pm 157 5 G 7 67° 26% - - 31° 83.2° 59.2° - - -
4/29 8:40pm 172 4 G 6 67° 26% - - 31° 83.2° 59.2° - - -
4/29 8:30pm 168 4 G 5 67° 26% - - 30° 83.2° 59.2° - - -
4/29 8:20pm 165 5 G 7 67° 25% - - 30° 83.2° 59.2° - - -
4/29 8:10pm 192 6 G 8 67° 25% - - 30° 83.2° 59.2° - - -
4/29 8:00pm 205 5 G 9 68° 24% - - 30° 83.2° 59.2° - - -
4/29 7:50pm 200 6 G 9 68° 25% - - 30° 83.2° 59.2° - - -
4/29 7:40pm 196 6 G 9 68° 26% - - 32° 83.2° 59.2° - - -
4/29 7:30pm 190 5 G 9 68° 25% - - 31° 83.2° 59.2° - - -
4/29 7:20pm 189 7 G 12 69° 22% - - 29° 83.2° 59.2° - - -
4/29 7:10pm 207 8 G 15 70° 21% - - 29° 83.2° 59.2° - - -
4/29 7:00pm 206 9 G 16 71° 21% - - 29° 83.2° 59.2° - - -
4/29 6:50pm 196 11 G 17 71° 19% - - 28° 83.2° 59.2° - - -
4/29 6:40pm 199 9 G 14 72° 21% - - 30° 83.2° 59.2° - - -
4/29 6:30pm 201 8 G 14 73° 22% - - 32° 83.2° 59.2° - - -
4/29 6:20pm 216 7 G 15 74° 20% - - 31° 83.2° 59.2° - - -
4/29 6:10pm 225 10 G 17 74° 19% - - 29° 83.2° 59.2° - - -
4/29 6:00pm 235 11 G 17 75° 16% - - 26° 83.2° 59.2° - - -
4/29 5:50pm 244 10 G 16 75° 16% - - 26° 83.2° 59.2° - - -
4/29 5:40pm 242 8 G 15 76° 16% - - 27° 83.2° 59.2° - - -
4/29 5:30pm 222 7 G 16 76° 15% - - 26° 83.2° 59.2° - - -
4/29 5:20pm 226 8 G 14 76° 15% - - 25° 83.2° 59.2° - - -
4/29 5:10pm 226 9 G 15 76° 16% - - 26° 83.2° 59.2° - - -
4/29 5:00pm 235 8 G 15 77° 16% - - 27° 83.2° 59.2° - - -
4/29 4:50pm 230 8 G 16 77° 16% - - 27° 83.2° 59.2° - - -
4/29 4:40pm 226 9 G 16 77° 15% - - 26° 83.2° 59.2° - - -
4/29 4:30pm 221 11 G 17 77° 15% - - 25° 83.2° 59.2° - - -
4/29 4:20pm 230 11 G 19 77° 14% - - 24° 83.2° 59.2° - - -
4/29 4:10pm 234 12 G 18 77° 16% - - 27° 83.2° 59.2° - - -
4/29 4:00pm 224 11 G 18 77° 17% - - 28° 83.2° 59.2° - - -
4/29 3:50pm 230 13 G 21 77° 16% - - 27° 83.2° 59.2° - - -
4/29 3:40pm 233 12 G 19 77° 15% - - 26° 83.2° 59.2° - - -
4/29 3:30pm 217 13 G 22 78° 14% - - 25° 83.2° 59.2° - - -
4/29 3:20pm 233 15 G 22 78° 14% - - 25° 83.2° 59.2° - - -
4/29 3:10pm 241 13 G 23 79° 13% - - 25° 83.2° 59.2° - - -
4/29 3:00pm 208 12 G 22 79° 15% - - 27° 83.2° 59.2° - - -
4/29 2:50pm 209 13 G 22 80° 14% - - 26° 83.2° 59.2° - - -
4/29 2:40pm 220 9 G 17 80° 14% - - 26° 83.2° 59.2° - - -
4/29 2:30pm 209 11 G 18 80° 15% - - 27° 83.2° 59.2° - - -
4/29 2:20pm 229 9 G 18 80° 15% - - 28° 83.2° 59.2° - - -
4/29 2:10pm 227 8 G 14 81° 12% - - 24° 83.2° 59.2° - - -
4/29 2:00pm 217 10 G 17 79° 13% - - 24° 83.2° 59.2° - - -
4/29 1:50pm 223 10 G 19 80° 14% - - 27° 83.2° 59.2° - - -
4/29 1:40pm 236 3 G 12 82° 10% - - 19° 83.2° 59.2° - - -
4/29 1:30pm 263 2 G 6 81° 9% - - 17° 82.4° 59.2° - - -
4/29 1:20pm 221 4 G 12 79° 8% - - 14° 82.1° 59.2° - - -
4/29 1:10pm 304 4 G 14 80° 9% - - 15° 82.1° 59.2° - - -
4/29 1:00pm 10 8 G 15 80° 9% - - 16° 82.1° 59.2° - - -
4/29 12:50pm 351 4 G 13 81° 9% - - 18° 82.1° 59.2° - - -
4/29 12:40pm 337 3 G 8 80° 10% - - 17° 81.2° 59.2° - - -
4/29 12:30pm 36 6 G 13 80° 10% - - 17° 81.2° 59.2° - - -
4/29 12:20pm 15 6 G 12 80° 9% - - 16° 81.2° 59.2° - - -
4/29 12:10pm 274 3 G 7 78° 9% - - 14° 79.1° 59.2° - - -
4/29 12:00pm 347 6 G 13 78° 9% - - 15° 79.1° 59.2° - - -
4/29 11:50am 353 5 G 15 78° 10% - - 16° 79.1° 59.2° - - -
4/29 11:40am 322 4 G 11 77° 9% - - 15° 78° 59.2° - - -
4/29 11:30am 13 5 G 13 76° 10% - - 15° 78° 59.2° - - -
4/29 11:20am 19 6 G 14 76° 10% - - 15° 78° 59.2° - - -
4/29 11:10am 356 6 G 14 76° 10% - - 15° 77.4° 59.2° - - -
4/29 11:00am 4 7 G 12 76° 11% - - 17° 77.2° 59.2° - - -
4/29 10:50am 352 9 G 18 75° 11% - - 16° 75.8° 59.2° - - -
4/29 10:40am 1 9 G 17 74° 11% - - 16° 75.3° 59.2° - - -
4/29 10:30am 19 10 G 16 74° 11% - - 17° 75.3° 59.2° - - -
4/29 10:20am 16 9 G 16 74° 12% - - 18° 74.3° 59.2° - - -
4/29 10:10am 3 7 G 17 73° 12% - - 18° 74.3° 59.2° - - -
4/29 10:00am 352 9 G 16 72° 12% - - 17° 72.3° 59.2° - - -
4/29 9:50am 3 12 G 19 71° 12% - - 17° 71.9° 59.2° - - -
4/29 9:40am 22 12 G 19 71° 13% - - 17° 71.8° 59.2° - - -
4/29 9:30am 23 14 G 20 71° 13% - - 17° 71.5° 59.2° - - -
4/29 9:20am 30 16 G 25 70° 13% - - 17° 70.4° 59.2° - - -
4/29 9:10am 19 13 G 26 69° 14% - - 18° 70.1° 59.2° - - -
4/29 9:00am 16 12 G 25 69° 14% - - 18° 69.6° 59.2° - - -
4/29 8:50am 5 13 G 21 68° 14% - - 18° 69° 59.2° - - -
4/29 8:40am 12 13 G 19 68° 15% - - 18° 68.6° 59.2° - - -
4/29 8:30am 13 14 G 26 67° 15% - - 18° 67.5° 59.2° - - -
4/29 8:20am 16 15 G 23 67° 15% - - 17° 67.3° 59.2° - - -
4/29 8:10am 20 17 G 29 66° 14% - - 16° 66.7° 59.2° - - -
4/29 8:00am 27 17 G 24 65° 15% - - 17° 66.2° 59.2° - - -
4/29 7:50am 23 16 G 25 64° 17% - - 18° 65.2° 59.2° - - -
4/29 7:40am 22 17 G 26 64° 17% - - 19° 65.1° 59.2° - - -
4/29 7:30am 22 17 G 27 63° 17% - - 18° 65.1° 59.2° - - -
4/29 7:20am 24 16 G 25 63° 18% - - 18° 65.1° 59.2° - - -
4/29 7:10am 21 17 G 24 62° 18% - - 18° 65.1° 59.2° - - -
4/29 7:00am 25 17 G 24 61° 19% - - 18° 65.1° 59.2° - - -
4/29 6:50am 19 16 G 24 61° 18% - - 17° 65.1° 59.2° - - -
4/29 6:40am 15 16 G 23 61° 18% - - 17° 65.1° 59.2° - - -
4/29 6:30am 16 14 G 22 62° 17% - - 16° 65.1° 59.2° - - -
4/29 6:20am 23 20 G 28 62° 17% - - 16° 65.1° 59.2° - - -
4/29 6:10am 19 18 G 27 62° 16% - - 16° 65.1° 59.2° - - -
4/29 6:00am 12 19 G 33 63° 15% - - 15° 65.1° 59.2° - - -
4/29 5:50am 14 18 G 26 63° 15% - - 15° 65.1° 59.2° - - -
4/29 5:40am 22 18 G 28 63° 15% - - 16° 65.1° 59.2° - - -
4/29 5:30am 16 19 G 29 63° 16% - - 16° 65.1° 59.2° - - -
4/29 5:20am 17 20 G 28 63° 16% - - 16° 65.1° 59.2° - - -
4/29 5:10am 14 16 G 29 63° 16% - - 16° 65.1° 59.2° - - -
4/29 5:00am 16 16 G 24 64° 16% - - 16° 65.1° 59.2° - - -
4/29 4:50am 19 17 G 24 64° 15% - - 16° 65.1° 59.2° - - -
4/29 4:40am 16 17 G 28 64° 15% - - 16° 65.1° 59.2° - - -
4/29 4:30am 16 18 G 26 64° 15% - - 16° 65.1° 59.2° - - -
4/29 4:20am 15 16 G 23 64° 16% - - 17° 65.1° 59.2° - - -
4/29 4:10am 18 17 G 22 64° 16% - - 17° 65.1° 59.2° - - -
4/29 4:00am 19 15 G 21 64° 16% - - 18° 65.1° 59.2° - - -
4/29 3:50am 19 15 G 19 64° 17% - - 18° 65.1° 59.2° - - -
4/29 3:40am 22 15 G 20 64° 17% - - 19° 65.1° 59.2° - - -
4/29 3:30am 23 16 G 23 64° 18% - - 20° 64.8° 59.2° - - -
4/29 3:20am 18 15 G 20 64° 19% - - 21° 64.8° 59.2° - - -
4/29 3:10am 15 15 G 22 64° 20% - - 22° 64.8° 59.2° - - -
4/29 3:00am 10 14 G 20 64° 20% - - 23° 64.8° 59.2° - - -
4/29 2:50am 14 14 G 19 64° 22% - - 24° 64.6° 59.2° - - -
4/29 2:40am 8 14 G 18 63° 25% - - 27° 63.9° 59.2° - - -
4/29 2:30am 10 14 G 20 63° 29% - - 30° 63.5° 59.2° - - -
4/29 2:20am 10 13 G 17 62° 32% - - 32° 63.3° 59.2° - - -
4/29 2:10am 9 12 G 18 62° 34% - - 33° 63.3° 59.2° - - -
4/29 2:00am 8 12 G 18 62° 37% - - 35° 63.3° 59.2° - - -
4/29 1:50am 17 12 G 17 62° 37% - - 35° 63.3° 59.2° - - -
4/29 1:40am 11 12 G 17 62° 38% - - 36° 63.3° 59.2° - - -
4/29 1:30am 8 13 G 18 63° 40% - - 38° 63.3° 59.2° - - -
4/29 1:20am 1 12 G 15 62° 43% - - 40° 63.2° 59.2° - - -
4/29 1:10am 5 11 G 14 62° 44% - - 40° 62.6° 59.2° - - -
4/29 1:00am 5 11 G 14 62° 43% - - 40° 62.6° 59.2° - - -
4/29 12:50am 3 11 G 14 61° 46% - - 40° 62.6° 59.2° - - -
4/29 12:40am 6 10 G 13 61° 49% - - 41° 62.4° 59.2° - - -
4/29 12:30am 10 10 G 14 61° 49% - - 42° 62.4° 59.2° - - -
4/29 12:20am 8 4 G 9 61° 53% - - 43° 62.4° 59.2° - - -
4/29 12:10am 21 2 G 4 61° 51% - - 43° 62.4° 60.9° - - -
4/29 12:00am 343 2 G 3 61° 52% - - 43° 74° 53° - - -
4/28 11:50pm 23 2 G 4 61° 52% - - 43° 74° 53° - - -
4/28 11:40pm 33 3 G 4 60° 54% - - 44° 74° 53° - - -
4/28 11:30pm 7 2 G 4 61° 54% - - 44° 74° 53° - - -
4/28 11:20pm 1 2 G 2 61° 58% - - 46° 74° 53° - - -
4/28 11:10pm 349 0 G 2 61° 59% - - 46° 74° 53° - - -
4/28 11:00pm 200 1 G 2 61° 57% - - 46° 74° 53° - - -
4/28 10:50pm 203 0 G 1 62° 54% - - 45° 74° 53° - - -
4/28 10:40pm 261 1 G 4 62° 56% - - 46° 74° 53° - - -
4/28 10:30pm 291 4 G 5 61° 59% - - 46° 74° 53° - - -
4/28 10:20pm 283 3 G 4 61° 57% - - 46° 74° 53° - - -
4/28 10:10pm 327 2 G 2 62° 54% - - 45° 74° 53° - - -
4/28 10:00pm 6 2 G 3 62° 55% - - 46° 74° 53° - - -
4/28 9:50pm 153 1 G 2 62° 53% - - 44° 74° 53° - - -
4/28 9:40pm 154 0 G 2 61° 56% - - 45° 74° 53° - - -
4/28 9:30pm 150 0 G 1 61° 57% - - 46° 74° 53° - - -
4/28 9:20pm 190 1 G 2 61° 57% - - 46° 74° 53° - - -
4/28 9:10pm 175 3 G 5 62° 56% - - 46° 74° 53° - - -
4/28 9:00pm 176 4 G 5 62° 56% - - 46° 74° 53° - - -
4/28 8:50pm 188 6 G 8 62° 56% - - 46° 74° 53° - - -
4/28 8:40pm 198 6 G 8 62° 56% - - 46° 74° 53° - - -
4/28 8:30pm 195 6 G 8 62° 53% - - 45° 74° 53° - - -
4/28 8:20pm 193 6 G 8 63° 52% - - 45° 74° 53° - - -
4/28 8:10pm 224 4 G 7 64° 50% - - 45° 74° 53° - - -
4/28 8:00pm 204 5 G 8 64° 48% - - 44° 74° 53° - - -
4/28 7:50pm 204 3 G 6 64° 47% - - 44° 74° 53° - - -
4/28 7:40pm 153 5 G 7 64° 46% - - 43° 74° 53° - - -
4/28 7:30pm 183 4 G 6 65° 46% - - 44° 74° 53° - - -
4/28 7:20pm 192 5 G 9 65° 46% - - 44° 74° 53° - - -
4/28 7:10pm 189 5 G 9 65° 46% - - 44° 74° 53° - - -
4/28 7:00pm 194 5 G 8 66° 46% - - 44° 74° 53° - - -
4/28 6:50pm 192 6 G 8 67° 45% - - 45° 74° 53° - - -
4/28 6:40pm 175 4 G 8 67° 44% - - 45° 74° 53° - - -
4/28 6:30pm 184 5 G 8 67° 43% - - 44° 74° 53° - - -
4/28 6:20pm 200 8 G 12 67° 43% - - 44° 74° 53° - - -
4/28 6:10pm 187 8 G 12 68° 40% - - 43° 74° 53° - - -
4/28 6:00pm 188 8 G 12 69° 38% - - 43° 74° 53° - - -